createdAt,value
2018-07-12T00:00:09.735Z,67.61
2018-07-12T00:02:38.249Z,67.99
2018-07-12T00:05:07.280Z,68.85
2018-07-12T00:07:35.843Z,69.03
2018-07-12T00:10:04.370Z,69.30
2018-07-12T00:12:32.955Z,69.12
2018-07-12T00:15:01.428Z,69.67
2018-07-12T00:17:29.916Z,69.53
2018-07-12T00:19:58.281Z,69.21
2018-07-12T00:22:26.832Z,69.36
2018-07-12T00:24:56.040Z,70.86
2018-07-12T00:27:24.657Z,70.88
2018-07-12T00:29:53.235Z,69.02
2018-07-12T00:32:21.819Z,70.15
2018-07-12T00:34:50.405Z,71.20
2018-07-12T00:37:18.837Z,71.48
2018-07-12T00:39:47.188Z,72.34
2018-07-12T00:42:15.947Z,71.79
2018-07-12T00:44:44.403Z,72.04
2018-07-12T00:47:12.907Z,72.06
2018-07-12T00:49:41.737Z,72.77
2018-07-12T00:52:10.417Z,73.06
2018-07-12T00:54:39.064Z,74.03
2018-07-12T00:57:07.751Z,74.56
2018-07-12T00:59:36.568Z,74.46
2018-07-12T01:02:05.122Z,74.51
2018-07-12T01:04:34.274Z,74.82
2018-07-12T01:07:03.104Z,74.20
2018-07-12T01:09:31.476Z,74.10
2018-07-12T01:12:00.272Z,74.63
2018-07-12T01:14:29.082Z,74.17
2018-07-12T01:16:58.226Z,74.51
2018-07-12T01:19:26.944Z,74.90
2018-07-12T01:21:56.343Z,74.83
2018-07-12T01:24:24.822Z,75.02
2018-07-12T01:26:53.505Z,75.85
2018-07-12T01:29:22.296Z,75.61
2018-07-12T01:31:50.797Z,75.53
2018-07-12T01:34:19.253Z,75.36
2018-07-12T01:36:48.140Z,74.94
2018-07-12T01:39:16.729Z,75.42
2018-07-12T01:41:47.011Z,75.60
2018-07-12T01:44:15.347Z,75.07
2018-07-12T01:46:44.326Z,75.27
2018-07-12T01:49:12.860Z,75.17
2018-07-12T01:51:41.482Z,75.44
2018-07-12T01:54:10.070Z,75.53
2018-07-12T01:56:38.758Z,76.53
2018-07-12T01:59:07.232Z,76.47
2018-07-12T02:01:35.921Z,76.58
2018-07-12T02:04:04.599Z,76.23
2018-07-12T02:06:33.183Z,76.95
2018-07-12T02:09:01.981Z,76.67
2018-07-12T02:11:30.758Z,76.93
2018-07-12T02:13:59.239Z,76.70
2018-07-12T02:16:27.710Z,77.01
2018-07-12T02:18:56.402Z,76.96
2018-07-12T02:21:25.089Z,76.92
2018-07-12T02:23:53.774Z,77.65
2018-07-12T02:26:22.260Z,77.10
2018-07-12T02:28:51.247Z,77.01
2018-07-12T02:31:20.048Z,76.85
2018-07-12T02:33:48.617Z,77.48
2018-07-12T02:36:17.727Z,77.49
2018-07-12T02:38:46.193Z,77.40
2018-07-12T02:41:15.480Z,77.87
2018-07-12T02:43:44.499Z,78.07
2018-07-12T02:46:13.286Z,77.74
2018-07-12T02:48:41.957Z,77.84
2018-07-12T02:51:10.441Z,78.05
2018-07-12T02:53:39.020Z,78.00
2018-07-12T02:56:07.599Z,77.87
2018-07-12T02:58:36.392Z,77.57
2018-07-12T03:01:05.769Z,76.56
2018-07-12T03:03:35.064Z,76.41
2018-07-12T03:06:03.777Z,76.44
2018-07-12T03:08:32.149Z,76.07
2018-07-12T03:11:00.938Z,76.29
2018-07-12T03:13:29.549Z,77.27
2018-07-12T03:15:58.102Z,77.31
2018-07-12T03:18:26.678Z,77.85
2018-07-12T03:20:55.277Z,78.04
2018-07-12T03:23:24.172Z,78.17
2018-07-12T03:25:52.668Z,76.83
2018-07-12T03:28:21.220Z,76.45
2018-07-12T03:30:49.801Z,76.34
2018-07-12T03:33:18.282Z,74.89
2018-07-12T03:35:47.182Z,74.29
2018-07-12T03:38:16.159Z,73.12
2018-07-12T03:40:44.750Z,72.63
2018-07-12T03:43:13.230Z,70.86
2018-07-12T03:45:41.716Z,69.83
2018-07-12T03:48:10.700Z,68.72
2018-07-12T03:50:40.112Z,68.02
2018-07-12T03:53:08.789Z,67.05
2018-07-12T03:55:37.409Z,66.52
2018-07-12T03:58:05.875Z,65.51
2018-07-12T04:00:34.534Z,64.32
2018-07-12T04:03:03.120Z,63.26
2018-07-12T04:05:31.816Z,63.94
2018-07-12T04:08:01.000Z,63.08
2018-07-12T04:10:29.589Z,61.34
2018-07-12T04:12:58.364Z,60.69
2018-07-12T04:15:28.077Z,58.07
2018-07-12T04:17:56.969Z,55.94
2018-07-12T04:20:26.120Z,56.40
2018-07-12T04:22:54.846Z,56.09
2018-07-12T04:25:23.431Z,54.00
2018-07-12T04:27:52.028Z,52.15
2018-07-12T04:30:20.702Z,52.89
2018-07-12T04:32:49.448Z,52.98
2018-07-12T04:35:18.150Z,52.13
2018-07-12T04:37:46.900Z,51.59
2018-07-12T04:40:15.492Z,49.88
2018-07-12T04:42:44.144Z,50.42
2018-07-12T04:45:12.811Z,48.66
2018-07-12T04:47:41.394Z,48.54
2018-07-12T04:50:10.664Z,47.07
2018-07-12T04:52:39.481Z,46.35
2018-07-12T04:55:08.164Z,46.89
2018-07-12T04:57:36.752Z,45.55
2018-07-12T05:00:05.332Z,45.01
2018-07-12T05:02:34.020Z,44.58
2018-07-12T05:05:02.703Z,44.69
2018-07-12T05:07:31.341Z,43.67
2018-07-12T05:09:59.968Z,43.72
2018-07-12T05:12:28.754Z,41.47
2018-07-12T05:14:57.478Z,42.64
2018-07-12T05:17:26.181Z,42.33
2018-07-12T05:19:54.775Z,42.67
2018-07-12T05:22:23.508Z,40.94
2018-07-12T05:24:52.655Z,39.88
2018-07-12T05:27:21.073Z,40.08
2018-07-12T05:29:49.549Z,40.33
2018-07-12T05:32:18.445Z,40.69
2018-07-12T05:34:47.616Z,38.27
2018-07-12T05:37:17.896Z,37.39
2018-07-12T05:39:48.138Z,39.84
2018-07-12T05:42:18.520Z,38.85
2018-07-12T05:44:48.793Z,38.01
2018-07-12T05:47:19.103Z,38.46
2018-07-12T05:49:49.823Z,37.23
2018-07-12T05:52:20.510Z,37.03
2018-07-12T05:54:51.216Z,37.51
2018-07-12T05:57:23.474Z,36.46
2018-07-12T05:59:53.945Z,37.00
2018-07-12T06:02:25.196Z,36.51
2018-07-12T06:04:55.689Z,36.54
2018-07-12T06:07:31.557Z,35.15
2018-07-12T06:10:01.963Z,34.61
2018-07-12T06:12:32.565Z,34.13
2018-07-12T06:15:03.029Z,33.71
2018-07-12T06:17:34.265Z,31.89
2018-07-12T06:20:05.266Z,34.53
2018-07-12T06:22:35.719Z,32.87
2018-07-12T06:25:06.931Z,33.03
2018-07-12T06:27:37.717Z,34.25
2018-07-12T06:30:08.421Z,33.43
2018-07-12T06:32:39.035Z,31.61
2018-07-12T06:35:09.387Z,32.28
2018-07-12T06:37:40.301Z,32.56
2018-07-12T06:40:11.007Z,32.12
2018-07-12T06:42:42.284Z,32.92
2018-07-12T06:45:12.811Z,30.36
2018-07-12T06:47:43.456Z,30.95
2018-07-12T06:50:14.055Z,32.03
2018-07-12T06:52:45.408Z,31.38
2018-07-12T06:55:16.208Z,30.48
2018-07-12T06:57:46.753Z,31.46
2018-07-12T07:00:17.170Z,31.03
2018-07-12T07:02:47.611Z,30.79
2018-07-12T07:05:18.073Z,29.40
2018-07-12T07:07:48.533Z,29.43
2018-07-12T07:10:19.023Z,29.17
2018-07-12T07:12:49.685Z,28.76
2018-07-12T07:15:20.144Z,30.35
2018-07-12T07:17:50.612Z,30.33
2018-07-12T07:20:21.112Z,30.54
2018-07-12T07:22:51.602Z,29.55
2018-07-12T07:25:22.960Z,29.43
2018-07-12T07:27:53.359Z,28.94
2018-07-12T07:30:24.194Z,26.99
2018-07-12T07:32:54.725Z,29.16
2018-07-12T07:35:25.277Z,28.24
2018-07-12T07:37:55.663Z,29.04
2018-07-12T07:40:26.072Z,27.23
2018-07-12T07:42:56.761Z,26.83
2018-07-12T07:45:27.081Z,26.63
2018-07-12T07:47:58.263Z,27.36
2018-07-12T07:50:28.936Z,27.92
2018-07-12T07:53:00.782Z,26.45
2018-07-12T07:55:31.289Z,26.71
2018-07-12T07:58:01.848Z,27.39
2018-07-12T08:00:32.543Z,26.81
2018-07-12T08:03:03.312Z,26.70
2018-07-12T08:05:33.972Z,28.02
2018-07-12T08:08:04.600Z,26.74
2018-07-12T08:10:35.117Z,24.13
2018-07-12T08:13:05.744Z,25.61
2018-07-12T08:15:36.503Z,27.31
2018-07-12T08:18:07.410Z,27.08
2018-07-12T08:20:37.922Z,25.72
2018-07-12T08:23:08.461Z,23.99
2018-07-12T08:25:38.960Z,24.57
2018-07-12T08:28:20.399Z,25.87
2018-07-12T08:30:51.952Z,25.15
2018-07-12T08:33:22.647Z,25.75
2018-07-12T08:35:53.347Z,26.98
2018-07-12T08:38:24.135Z,25.72
2018-07-12T08:40:55.131Z,26.32
2018-07-12T08:43:26.076Z,26.32
2018-07-12T08:45:57.145Z,26.57
2018-07-12T08:48:28.282Z,24.38
2018-07-12T08:50:59.341Z,23.14
2018-07-12T08:53:30.426Z,23.15
2018-07-12T08:56:01.325Z,22.61
2018-07-12T08:58:32.243Z,23.00
2018-07-12T09:01:04.261Z,23.68
2018-07-12T09:03:35.013Z,22.33
2018-07-12T09:06:05.914Z,23.34
2018-07-12T09:08:37.013Z,24.17
2018-07-12T09:11:08.232Z,23.36
2018-07-12T09:13:39.110Z,21.20
2018-07-12T09:16:10.726Z,21.21
2018-07-12T09:18:41.945Z,20.51
2018-07-12T09:21:14.923Z,20.61
2018-07-12T09:23:46.217Z,19.87
2018-07-12T09:26:18.174Z,19.57
2018-07-12T09:28:49.388Z,20.17
2018-07-12T09:31:20.558Z,20.72
2018-07-12T09:33:52.595Z,20.58
2018-07-12T09:36:26.010Z,20.88
2018-07-12T09:38:57.026Z,21.11
2018-07-12T09:41:28.111Z,21.19
2018-07-12T09:44:10.316Z,21.51
2018-07-12T09:46:42.244Z,20.27
2018-07-12T09:49:13.287Z,19.42
2018-07-12T09:51:45.421Z,20.68
2018-07-12T09:54:16.294Z,19.72
2018-07-12T09:56:57.829Z,22.07
2018-07-12T09:59:29.223Z,20.25
2018-07-12T10:02:04.929Z,19.18
2018-07-12T10:04:35.744Z,19.33
2018-07-12T10:07:11.976Z,20.27
2018-07-12T10:09:47.635Z,20.03
2018-07-12T10:12:23.369Z,20.11
2018-07-12T10:14:57.845Z,18.45
2018-07-12T10:17:33.532Z,18.24
2018-07-12T10:20:05.495Z,18.82
2018-07-12T10:22:35.962Z,18.60
2018-07-12T10:25:06.970Z,18.46
2018-07-12T10:27:37.492Z,18.09
2018-07-12T10:30:08.194Z,18.08
2018-07-12T10:32:38.913Z,19.92
2018-07-12T10:35:09.815Z,17.97
2018-07-12T10:37:40.524Z,20.16
2018-07-12T10:40:11.322Z,19.60
2018-07-12T10:42:41.996Z,19.04
2018-07-12T10:45:12.707Z,19.44
2018-07-12T10:47:43.421Z,18.55
2018-07-12T10:50:14.192Z,18.42
2018-07-12T10:52:44.985Z,17.74
2018-07-12T10:55:15.639Z,19.06
2018-07-12T10:57:46.447Z,18.03
2018-07-12T11:00:17.439Z,19.57
2018-07-12T11:02:48.185Z,20.45
2018-07-12T11:05:19.126Z,20.06
2018-07-12T11:07:50.163Z,20.44
2018-07-12T11:10:20.873Z,21.54
2018-07-12T11:13:02.300Z,19.93
2018-07-12T11:15:32.993Z,20.14
2018-07-12T11:18:03.664Z,21.15
2018-07-12T11:20:34.049Z,19.91
2018-07-12T11:23:04.767Z,20.65
2018-07-12T11:25:35.448Z,20.42
2018-07-12T11:28:06.419Z,20.43
2018-07-12T11:30:37.209Z,20.81
2018-07-12T11:33:49.601Z,22.75
2018-07-12T11:36:20.395Z,24.35
2018-07-12T11:38:51.092Z,24.87
2018-07-12T11:41:22.892Z,26.08
2018-07-12T11:43:53.557Z,26.78
2018-07-12T11:46:25.347Z,25.93
2018-07-12T11:48:56.047Z,26.46
2018-07-12T11:51:26.742Z,27.15
2018-07-12T11:53:57.543Z,27.39
2018-07-12T11:56:28.988Z,27.15
2018-07-12T11:58:59.868Z,25.85
2018-07-12T12:01:31.373Z,26.03
2018-07-12T12:04:03.004Z,26.08
2018-07-12T12:06:33.633Z,26.43
2018-07-12T12:09:05.491Z,28.37
2018-07-12T12:11:37.503Z,26.74
2018-07-12T12:14:08.334Z,26.68
2018-07-12T12:16:38.986Z,27.08
2018-07-12T12:19:09.808Z,26.21
2018-07-12T12:21:40.847Z,26.05
2018-07-12T12:24:11.666Z,25.66
2018-07-12T12:26:42.892Z,25.62
2018-07-12T12:29:13.922Z,25.34
2018-07-12T12:31:45.970Z,25.76
2018-07-12T12:34:16.813Z,26.69
2018-07-12T12:36:47.483Z,26.20
2018-07-12T12:39:18.111Z,26.23
2018-07-12T12:41:49.335Z,26.83
2018-07-12T12:44:20.109Z,26.35
2018-07-12T12:46:50.618Z,27.30
2018-07-12T12:49:21.468Z,27.60
2018-07-12T12:51:52.109Z,27.74
2018-07-12T12:54:22.637Z,27.17
2018-07-12T12:56:53.353Z,27.11
2018-07-12T12:59:24.094Z,27.08
2018-07-12T13:01:54.831Z,27.26
2018-07-12T13:04:25.724Z,27.80
2018-07-12T13:06:56.421Z,28.31
2018-07-12T13:09:27.069Z,27.47
2018-07-12T13:11:57.997Z,27.50
2018-07-12T13:14:28.722Z,28.59
2018-07-12T13:16:59.623Z,28.69
2018-07-12T13:19:30.373Z,28.81
2018-07-12T13:22:01.327Z,28.83
2018-07-12T13:24:32.062Z,28.66
2018-07-12T13:27:02.711Z,28.92
2018-07-12T13:29:33.266Z,29.13
2018-07-12T13:32:03.996Z,28.77
2018-07-12T13:34:34.788Z,29.23
2018-07-12T13:37:05.681Z,29.72
2018-07-12T13:39:36.668Z,29.38
2018-07-12T13:42:07.305Z,29.29
2018-07-12T13:44:37.980Z,29.49
2018-07-12T13:47:08.813Z,29.95
2018-07-12T13:49:39.640Z,29.76
2018-07-12T13:52:10.335Z,29.72
2018-07-12T13:54:40.765Z,30.03
2018-07-12T13:57:11.446Z,29.80
2018-07-12T13:59:42.241Z,29.54
2018-07-12T14:02:12.908Z,29.34
2018-07-12T14:04:43.591Z,29.65
2018-07-12T14:07:14.469Z,29.06
2018-07-12T14:09:45.065Z,29.31
2018-07-12T14:12:15.531Z,29.41
2018-07-12T14:14:46.263Z,29.88
2018-07-12T14:17:16.854Z,29.43
2018-07-12T14:19:47.673Z,30.37
2018-07-12T14:22:18.396Z,30.18
2018-07-12T14:24:49.082Z,30.57
2018-07-12T14:27:20.120Z,30.48
2018-07-12T14:29:50.785Z,30.63
2018-07-12T14:32:22.964Z,30.62
2018-07-12T14:34:54.522Z,31.27
2018-07-12T14:37:25.092Z,31.58
2018-07-12T14:39:55.770Z,31.06
2018-07-12T14:42:26.432Z,31.31
2018-07-12T14:44:57.097Z,31.00
2018-07-12T14:47:27.610Z,31.15
2018-07-12T14:49:58.218Z,31.75
2018-07-12T14:52:28.955Z,31.16
2018-07-12T14:54:59.721Z,31.48
2018-07-12T14:57:30.268Z,30.67
2018-07-12T15:00:00.844Z,30.10
2018-07-12T15:02:31.681Z,30.86
2018-07-12T15:05:02.494Z,30.15
2018-07-12T15:07:33.285Z,30.41
2018-07-12T15:10:03.871Z,30.09
2018-07-12T15:12:34.526Z,30.95
2018-07-12T15:15:05.317Z,29.91
2018-07-12T15:17:36.103Z,29.83
2018-07-12T15:20:06.746Z,30.98
2018-07-12T15:22:37.500Z,30.46
2018-07-12T15:25:08.437Z,29.86
2018-07-12T15:27:39.004Z,30.69
2018-07-12T15:30:09.675Z,31.02
2018-07-12T15:32:40.311Z,30.21
2018-07-12T15:35:11.328Z,30.70
2018-07-12T15:37:42.113Z,31.72
2018-07-12T15:40:13.153Z,31.19
2018-07-12T15:42:45.099Z,32.55
2018-07-12T15:45:15.615Z,31.66
2018-07-12T15:47:46.322Z,31.92
2018-07-12T15:50:21.336Z,32.06
2018-07-12T15:52:52.075Z,31.87
2018-07-12T15:55:22.872Z,31.71
2018-07-12T15:57:53.638Z,31.96
2018-07-12T16:00:24.841Z,31.17
2018-07-12T16:02:55.544Z,30.95
2018-07-12T16:05:26.389Z,31.10
2018-07-12T16:07:57.093Z,30.55
2018-07-12T16:10:27.690Z,30.90
2018-07-12T16:12:58.263Z,30.24
2018-07-12T16:15:29.030Z,30.02
2018-07-12T16:17:59.699Z,30.18
2018-07-12T16:20:30.400Z,29.92
2018-07-12T16:23:00.884Z,29.01
2018-07-12T16:25:31.534Z,29.71
2018-07-12T16:28:02.130Z,28.96
2018-07-12T16:30:33.106Z,28.42
2018-07-12T16:33:03.849Z,28.06
2018-07-12T16:35:34.445Z,28.69
2018-07-12T16:38:05.217Z,28.67
2018-07-12T16:40:35.707Z,29.28
2018-07-12T16:43:06.461Z,29.53
2018-07-12T16:45:37.490Z,29.64
2018-07-12T16:48:08.145Z,28.96
2018-07-12T16:50:38.628Z,30.19
2018-07-12T16:53:09.394Z,30.87
2018-07-12T16:55:40.921Z,32.38
2018-07-12T16:58:12.009Z,34.03
2018-07-12T17:00:42.611Z,36.21
2018-07-12T17:03:13.813Z,36.53
2018-07-12T17:05:44.594Z,36.43
2018-07-12T17:08:15.075Z,37.86
2018-07-12T17:10:45.770Z,38.69
2018-07-12T17:13:16.177Z,38.44
2018-07-12T17:15:46.680Z,38.54
2018-07-12T17:18:17.599Z,38.96
2018-07-12T17:20:48.297Z,39.55
2018-07-12T17:23:18.821Z,39.97
2018-07-12T17:25:49.605Z,40.22
2018-07-12T17:28:20.488Z,40.60
2018-07-12T17:30:50.995Z,41.50
2018-07-12T17:33:21.823Z,41.55
2018-07-12T17:35:52.335Z,41.10
2018-07-12T17:38:23.008Z,41.49
2018-07-12T17:40:53.704Z,42.06
2018-07-12T17:43:24.496Z,41.65
2018-07-12T17:45:58.704Z,41.82
2018-07-12T17:48:29.391Z,42.52
2018-07-12T17:51:00.073Z,42.32
2018-07-12T17:53:30.648Z,43.25
2018-07-12T17:56:01.295Z,43.40
2018-07-12T17:58:31.955Z,43.44
2018-07-12T18:01:03.384Z,44.25
2018-07-12T18:03:34.223Z,45.06
2018-07-12T18:06:05.012Z,44.80
2018-07-12T18:08:35.720Z,45.70
2018-07-12T18:11:07.249Z,45.18
2018-07-12T18:13:37.971Z,45.60
2018-07-12T18:16:08.700Z,46.06
2018-07-12T18:18:39.643Z,46.18
2018-07-12T18:21:10.160Z,46.74
2018-07-12T18:23:40.795Z,47.51
2018-07-12T18:26:11.684Z,46.88
2018-07-12T18:28:42.434Z,46.36
2018-07-12T18:31:13.209Z,46.34
2018-07-12T18:33:43.771Z,45.94
2018-07-12T18:36:14.355Z,45.90
2018-07-12T18:38:45.059Z,46.27
2018-07-12T18:41:15.617Z,46.04
2018-07-12T18:43:46.107Z,45.77
2018-07-12T18:46:16.916Z,45.57
2018-07-12T18:48:47.696Z,44.35
2018-07-12T18:51:18.447Z,44.59
2018-07-12T18:53:49.117Z,44.45
2018-07-12T18:56:19.800Z,44.35
2018-07-12T18:58:50.428Z,45.23
2018-07-12T19:01:21.040Z,45.03
2018-07-12T19:03:52.057Z,44.69
2018-07-12T19:06:22.818Z,45.29
2018-07-12T19:08:53.549Z,46.13
2018-07-12T19:11:24.399Z,46.28
2018-07-12T19:13:55.010Z,47.11
2018-07-12T19:16:25.654Z,47.37
2018-07-12T19:18:56.326Z,47.63
2018-07-12T19:21:27.055Z,47.72
2018-07-12T19:23:57.504Z,48.36
2018-07-12T19:26:28.250Z,48.31
2018-07-12T19:28:58.810Z,48.57
2018-07-12T19:31:29.467Z,49.41
2018-07-12T19:34:00.112Z,49.73
2018-07-12T19:36:30.846Z,48.09
2018-07-12T19:39:01.296Z,48.86
2018-07-12T19:41:32.078Z,49.29
2018-07-12T19:44:02.790Z,49.22
2018-07-12T19:46:33.533Z,50.09
2018-07-12T19:49:04.752Z,49.44
2018-07-12T19:51:35.438Z,49.76
2018-07-12T19:54:06.294Z,50.27
2018-07-12T19:56:37.191Z,49.95
2018-07-12T19:59:07.809Z,50.28
2018-07-12T20:01:39.051Z,51.51
2018-07-12T20:04:09.615Z,51.23
2018-07-12T20:06:40.184Z,51.26
2018-07-12T20:09:11.582Z,52.15
2018-07-12T20:11:42.633Z,52.30
2018-07-12T20:14:13.353Z,52.03
2018-07-12T20:16:44.063Z,53.06
2018-07-12T20:19:14.659Z,52.48
2018-07-12T20:21:45.214Z,52.20
2018-07-12T20:24:15.939Z,51.70
2018-07-12T20:26:46.630Z,51.74
2018-07-12T20:29:17.378Z,51.91
2018-07-12T20:31:48.296Z,52.48
2018-07-12T20:34:18.808Z,52.30
2018-07-12T20:36:49.543Z,52.52
2018-07-12T20:39:20.573Z,51.59
2018-07-12T20:41:51.696Z,52.71
2018-07-12T20:44:22.303Z,53.18
2018-07-12T20:46:53.071Z,53.08
2018-07-12T20:49:23.704Z,52.83
2018-07-12T20:51:54.303Z,53.43
2018-07-12T20:54:25.054Z,52.97
2018-07-12T20:56:55.895Z,53.14
2018-07-12T20:59:26.752Z,53.62
2018-07-12T21:01:57.291Z,54.19
2018-07-12T21:04:32.592Z,54.16
2018-07-12T21:07:03.885Z,53.99
2018-07-12T21:09:34.619Z,54.57
2018-07-12T21:12:05.231Z,54.12
2018-07-12T21:14:37.202Z,54.32
2018-07-12T21:17:08.144Z,54.51
2018-07-12T21:19:38.895Z,55.18
2018-07-12T21:22:09.427Z,55.25
2018-07-12T21:24:40.030Z,55.73
2018-07-12T21:27:10.738Z,55.90
2018-07-12T21:29:41.409Z,55.68
2018-07-12T21:32:11.990Z,55.37
2018-07-12T21:34:42.762Z,55.83
2018-07-12T21:37:13.510Z,56.17
2018-07-12T21:39:44.191Z,55.91
2018-07-12T21:42:15.150Z,56.03
2018-07-12T21:44:45.672Z,55.78
2018-07-12T21:47:16.380Z,56.07
2018-07-12T21:49:47.047Z,56.28
2018-07-12T21:52:17.811Z,56.59
2018-07-12T21:54:49.119Z,57.42
2018-07-12T21:57:19.790Z,57.38
2018-07-12T21:59:50.539Z,58.11
2018-07-12T22:02:21.064Z,58.17
2018-07-12T22:04:51.712Z,58.18
2018-07-12T22:08:26.622Z,57.70
2018-07-12T22:10:58.477Z,58.18
2018-07-12T22:13:30.343Z,58.41
2018-07-12T22:16:00.914Z,58.04
2018-07-12T22:18:31.837Z,58.17
2018-07-12T22:21:05.757Z,58.01
2018-07-12T22:23:36.404Z,58.20
2018-07-12T22:26:07.397Z,58.18
2018-07-12T22:28:38.089Z,58.52
2018-07-12T22:31:09.021Z,58.35
2018-07-12T22:33:40.504Z,58.73
2018-07-12T22:36:11.223Z,58.40
2018-07-12T22:38:41.905Z,58.91
2018-07-12T22:41:12.580Z,58.77
2018-07-12T22:43:43.264Z,58.95
2018-07-12T22:46:14.122Z,58.92
2018-07-12T22:48:44.799Z,58.27
2018-07-12T22:51:15.694Z,59.30
2018-07-12T22:53:46.530Z,59.39
2018-07-12T22:56:17.232Z,59.55
2018-07-12T22:58:47.899Z,59.16
2018-07-12T23:01:18.503Z,59.12
2018-07-12T23:03:49.222Z,59.78
2018-07-12T23:06:20.100Z,59.84
2018-07-12T23:08:50.588Z,59.85
2018-07-12T23:11:22.397Z,60.94
2018-07-12T23:13:52.828Z,60.81
2018-07-12T23:16:23.901Z,61.00
2018-07-12T23:18:54.542Z,61.65
2018-07-12T23:21:25.325Z,61.60
2018-07-12T23:23:56.203Z,62.12
2018-07-12T23:26:26.796Z,61.59
2018-07-12T23:28:57.352Z,62.20
2018-07-12T23:31:27.917Z,62.58
2018-07-12T23:33:58.685Z,62.84
2018-07-12T23:36:29.173Z,63.01
2018-07-12T23:39:01.611Z,63.69
2018-07-12T23:41:32.430Z,62.68
2018-07-12T23:44:03.193Z,62.82
2018-07-12T23:46:33.823Z,63.73
2018-07-12T23:49:04.553Z,63.64
2018-07-12T23:51:35.414Z,63.92
2018-07-12T23:54:06.311Z,64.87
2018-07-12T23:56:36.916Z,65.16
2018-07-12T23:59:07.589Z,65.01
